Greenville, SC (29609)

6:16 PM EST on November 25, 2014 (GMT -0500)
Near Piney Mountain | Change Station
CLOSE
Current Station
Personal Weather Station
Location: Greenville, SC
Elevation: 1060 ft
Nearby Weather Stations

Elev 1060 ft 34.89 °N, 82.37 °W | Updated 1 minute ago

Partly Cloudy
Partly Cloudy
53.1 °F
Feels Like 53.1 °F
N
0.0
Wind Variable Wind from South
Gusts 1.0 mph

Today
High -- | Low -- °F
--% Chance of Precip.
Yesterday
High -- | Low -- °F
Precip. -- in
7:13 AM 5:19 PM
Waxing Crescent, 14% visible
Pressure 30.04 in
Visibility 10.0 miles
Clouds Clear
Dew Point 41 °F
Humidity 64%
Rainfall 0.00 in
Snow Depth Not available.
UV 0 out of 12
Pollen 1.80 out of 12
Air Quality Not available.
Flu Activity Not available.
METAR KGMU 252253Z 04005KT 10SM CLR 13/03 A3004 RMK AO2 SLP170 T01280033

More Conditions Fewer Conditions

Pressure 30.04 in
Visibility 10.0 miles
Clouds Clear
Dew Point 41 °F
Humidity 64%
Rainfall 0.00 in
Snow Depth Not available.
UV 0 out of 12
Pollen 1.80 out of 12
Air Quality Not available.
Flu Activity Not available.
METAR KGMU 252253Z 04005KT 10SM CLR 13/03 A3004 RMK AO2 SLP170 T01280033

More Conditions Fewer Conditions

10-Day Weather Forecast

Almanac

Astronomy

Nov. 25, 2014 Rise Set
Actual Time
Civil Twilight
Nautical Twilight
Astronomical Twilight
Moon
Length of Visible Light
Length of Day
Tomorrow will be .
, % of the Moon is Illuminated

Today's Extremes

State Highs State Lows

Community

WunderPhotos

Upload Photos

1,773,620 photos uploaded!

WunderBlogs® & News

Nearby

Air Quality

  Air Quality AQ Index Pollutant
Not available.

Snow Depth

Station Depth Elevation

Earthquake Activity

City Distance Mag. Time & Date
Minimum magnitude displayed is 2.5.

Coastal Water Temperatures

Place Temperature

Nearby Weather Stations